Time;durP1;ratioP1;P1;durP2;ratioP2;P2;SDS_P1;SDS_P2;PMS_P1;PMS_P2;Temp;Humidity;BMP_temperature;BMP_pressure;BME280_temperature;BME280_humidity;BME280_pressure;Samples;Min_cycle;Max_cycle;Signal;HPM_P1;HPM_P2
2021/05/05 00:02:00;;;;;;;2.93;2.37;;;;;;;;;;5089319;28;20033;-74
2021/05/05 00:04:26;;;;;;;2.73;2.00;;;;;;;;;;5072605;28;20482;-74
2021/05/05 00:06:54;;;;;;;5.03;2.40;;;;;;;;;;5085184;28;20020;-73
2021/05/05 00:09:21;;;;;;;4.53;2.15;;;;;;;;;;5083443;28;20078;-74
2021/05/05 00:11:46;;;;;;;2.63;2.20;;;;;;;;;;5075279;28;20123;-74
2021/05/05 00:14:14;;;;;;;3.97;2.13;;;;;;;;;;5076375;28;20103;-74
2021/05/05 00:16:39;;;;;;;;;;;;;;;;;;5073703;28;20410;-74
2021/05/05 00:19:06;;;;;;;3.22;2.05;;;;;;;;;;5072481;28;19916;-74
2021/05/05 00:21:33;;;;;;;4.75;2.20;;;;;;;;;;5084971;28;20036;-74
2021/05/05 00:23:59;;;;;;;;;;;;;;;;;;5073421;28;20047;-73
2021/05/05 00:26:25;;;;;;;3.47;2.00;;;;;;;;;;5071956;28;19908;-75
2021/05/05 00:28:51;;;;;;;2.93;2.20;;;;;;;;;;5072630;28;20021;-74
2021/05/05 00:31:17;;;;;;;2.55;2.10;;;;;;;;;;5073264;28;20751;-73
2021/05/05 00:33:44;;;;;;;3.67;2.10;;;;;;;;;;5089076;28;20031;-74
2021/05/05 00:36:10;;;;;;;3.45;1.98;;;;;;;;;;5089735;28;20470;-74
2021/05/05 00:38:36;;;;;;;2.03;1.75;;;;;;;;;;5092233;28;20039;-73
2021/05/05 00:41:05;;;;;;;5.43;2.40;;;;;;;;;;5079031;28;20028;-74
2021/05/05 00:43:31;;;;;;;3.33;2.25;;;;;;;;;;5086019;28;20093;-74
2021/05/05 00:45:57;;;;;;;4.32;2.00;;;;;;;;;;5090355;28;20523;-74
2021/05/05 00:48:23;;;;;;;2.33;2.03;;;;;;;;;;5091811;28;20049;-74
2021/05/05 00:50:49;;;;;;;2.22;2.00;;;;;;;;;;5090838;28;20020;-74
2021/05/05 00:53:15;;;;;;;3.78;1.90;;;;;;;;;;5078255;28;20052;-74
2021/05/05 00:55:41;;;;;;;4.03;2.10;;;;;;;;;;5072576;28;20025;-74
2021/05/05 00:58:08;;;;;;;3.90;2.47;;;;;;;;;;5072959;28;20060;-73
2021/05/05 01:00:34;;;;;;;;;;;;;;;;;;5087999;28;20051;-73
2021/05/05 01:03:00;;;;;;;6.93;2.20;;;;;;;;;;5076554;28;20425;-74
2021/05/05 01:05:26;;;;;;;3.35;1.92;;;;;;;;;;5091381;28;20600;-73
2021/05/05 01:07:52;;;;;;;3.25;2.15;;;;;;;;;;5073697;28;20024;-74
2021/05/05 01:10:19;;;;;;;3.25;2.20;;;;;;;;;;5083869;28;20032;-73
2021/05/05 01:12:45;;;;;;;5.80;2.10;;;;;;;;;;5088782;28;20044;-73
2021/05/05 01:15:12;;;;;;;2.95;2.05;;;;;;;;;;5091724;28;20016;-74
2021/05/05 01:17:38;;;;;;;3.10;2.25;;;;;;;;;;5077152;28;20032;-75
2021/05/05 01:20:05;;;;;;;3.83;2.10;;;;;;;;;;5075760;28;20081;-74
2021/05/05 01:22:31;;;;;;;15.38;2.70;;;;;;;;;;5087529;28;20036;-73
2021/05/05 01:24:57;;;;;;;9.55;2.40;;;;;;;;;;5078711;28;20032;-73
2021/05/05 01:27:23;;;;;;;8.23;2.45;;;;;;;;;;5070795;28;20020;-74
2021/05/05 01:29:49;;;;;;;4.43;2.20;;;;;;;;;;5088087;28;20373;-73
2021/05/05 01:32:16;;;;;;;4.93;2.30;;;;;;;;;;5084406;28;20047;-74
2021/05/05 01:34:43;;;;;;;7.93;2.17;;;;;;;;;;5081033;28;20025;-73
2021/05/05 01:37:09;;;;;;;5.05;2.40;;;;;;;;;;5077227;28;20409;-73
2021/05/05 01:39:35;;;;;;;3.35;2.28;;;;;;;;;;5070609;28;20044;-73
2021/05/05 01:42:01;;;;;;;6.47;2.60;;;;;;;;;;5085540;28;20553;-74
2021/05/05 01:44:35;;;;;;;6.47;2.43;;;;;;;;;;5090936;28;20040;-73
2021/05/05 01:47:01;;;;;;;7.05;2.25;;;;;;;;;;5077776;28;20309;-75
2021/05/05 01:49:27;;;;;;;4.47;1.80;;;;;;;;;;5085490;28;20042;-74
2021/05/05 01:51:54;;;;;;;3.88;1.70;;;;;;;;;;5076891;28;20719;-73
2021/05/05 01:54:21;;;;;;;3.63;2.20;;;;;;;;;;5069143;28;20119;-73
2021/05/05 01:56:47;;;;;;;4.78;2.30;;;;;;;;;;5075470;28;20509;-74
2021/05/05 01:59:13;;;;;;;5.23;2.17;;;;;;;;;;5070582;28;20032;-74
2021/05/05 02:01:39;;;;;;;4.38;2.20;;;;;;;;;;5069062;28;20258;-74
2021/05/05 02:04:05;;;;;;;2.33;1.80;;;;;;;;;;5069812;28;20040;-74
2021/05/05 02:06:31;;;;;;;2.63;2.00;;;;;;;;;;5076093;28;20093;-74
2021/05/05 02:08:59;;;;;;;4.57;2.25;;;;;;;;;;5090298;28;20028;-74
2021/05/05 02:11:25;;;;;;;4.07;2.28;;;;;;;;;;5080828;28;20046;-73
2021/05/05 02:13:51;;;;;;;2.07;1.90;;;;;;;;;;5070264;28;20033;-73
2021/05/05 02:16:17;;;;;;;4.50;2.20;;;;;;;;;;5071507;28;20680;-74
2021/05/05 02:18:43;;;;;;;7.90;1.90;;;;;;;;;;5069985;28;20028;-75
2021/05/05 02:21:10;;;;;;;6.07;2.20;;;;;;;;;;5070466;28;20032;-74
2021/05/05 02:23:36;;;;;;;5.40;2.30;;;;;;;;;;5081043;28;20044;-74
2021/05/05 02:26:02;;;;;;;5.95;2.45;;;;;;;;;;5088043;28;20262;-74
2021/05/05 02:28:28;;;;;;;6.10;2.30;;;;;;;;;;5070455;28;20094;-74
2021/05/05 02:30:54;;;;;;;5.77;2.30;;;;;;;;;;5070385;28;20032;-74
2021/05/05 02:33:20;;;;;;;5.07;2.10;;;;;;;;;;5072433;28;20032;-74
2021/05/05 02:35:46;;;;;;;3.50;2.20;;;;;;;;;;5084309;28;20036;-74
2021/05/05 02:38:13;;;;;;;4.70;2.72;;;;;;;;;;5069893;28;20141;-74
2021/05/05 02:40:39;;;;;;;5.37;2.17;;;;;;;;;;5070205;28;20024;-74
2021/05/05 02:43:05;;;;;;;7.05;2.20;;;;;;;;;;5076374;28;20027;-74
2021/05/05 02:45:31;;;;;;;4.85;2.10;;;;;;;;;;5089587;28;20065;-74
2021/05/05 02:47:57;;;;;;;3.47;2.30;;;;;;;;;;5089099;28;20482;-74
2021/05/05 02:50:23;;;;;;;5.75;2.20;;;;;;;;;;5090452;28;20028;-74
2021/05/05 02:52:49;;;;;;;4.47;2.10;;;;;;;;;;5089107;28;20409;-74
2021/05/05 02:55:15;;;;;;;6.95;2.20;;;;;;;;;;5087687;28;20040;-74
2021/05/05 02:57:41;;;;;;;5.57;2.58;;;;;;;;;;5075581;28;20029;-73
2021/05/05 03:00:08;;;;;;;6.53;2.40;;;;;;;;;;5077718;28;20051;-73
2021/05/05 03:02:34;;;;;;;4.75;2.00;;;;;;;;;;5072795;28;20056;-73
2021/05/05 03:05:00;;;;;;;4.10;2.25;;;;;;;;;;5072750;28;20126;-74
2021/05/05 03:07:26;;;;;;;4.85;2.10;;;;;;;;;;5080966;28;20032;-74
2021/05/05 03:09:52;;;;;;;4.10;2.28;;;;;;;;;;5072257;28;20033;-73
2021/05/05 03:12:18;;;;;;;4.35;2.00;;;;;;;;;;5069928;28;20406;-74
2021/05/05 03:14:44;;;;;;;5.38;2.22;;;;;;;;;;5088396;28;20486;-74
2021/05/05 03:17:11;;;;;;;6.38;2.08;;;;;;;;;;5093446;28;20401;-74
2021/05/05 03:19:37;;;;;;;6.55;2.45;;;;;;;;;;5078418;28;20058;-75
2021/05/05 03:22:03;;;;;;;4.80;2.40;;;;;;;;;;5093905;28;20032;-74
2021/05/05 03:24:29;;;;;;;4.03;2.10;;;;;;;;;;5092470;28;20031;-74
2021/05/05 03:26:55;;;;;;;4.38;2.30;;;;;;;;;;5082511;28;20044;-74
2021/05/05 03:29:21;;;;;;;5.93;2.08;;;;;;;;;;5089243;28;20032;-74
2021/05/05 03:31:47;;;;;;;3.55;2.20;;;;;;;;;;5089963;28;20459;-75
2021/05/05 03:34:13;;;;;;;2.88;2.00;;;;;;;;;;5073438;28;20032;-74
2021/05/05 03:36:39;;;;;;;3.77;2.10;;;;;;;;;;5072396;28;20410;-74
2021/05/05 03:39:06;;;;;;;3.67;2.03;;;;;;;;;;5082875;28;20093;-74
2021/05/05 03:41:33;;;;;;;3.65;2.00;;;;;;;;;;5093342;28;20032;-74
2021/05/05 03:43:59;;;;;;;6.20;2.20;;;;;;;;;;5092796;28;20043;-74
2021/05/05 03:46:25;;;;;;;6.00;2.05;;;;;;;;;;5075978;28;20114;-75
2021/05/05 03:48:51;;;;;;;3.00;1.93;;;;;;;;;;5080424;28;20028;-74
2021/05/05 03:51:17;;;;;;;5.38;2.30;;;;;;;;;;5093167;28;20485;-74
2021/05/05 03:53:43;;;;;;;9.05;2.35;;;;;;;;;;5093089;28;20020;-75
2021/05/05 03:56:09;;;;;;;3.65;2.13;;;;;;;;;;5089313;28;20047;-75
2021/05/05 03:58:35;;;;;;;5.28;2.22;;;;;;;;;;5082866;28;20036;-74
2021/05/05 04:01:01;;;;;;;4.57;2.42;;;;;;;;;;5093000;28;20347;-74
2021/05/05 04:03:27;;;;;;;3.20;2.05;;;;;;;;;;5092949;28;20031;-74
2021/05/05 04:05:53;;;;;;;3.90;2.10;;;;;;;;;;5084185;28;21498;-75
2021/05/05 04:08:19;;;;;;;5.68;2.35;;;;;;;;;;5092569;28;20020;-74
2021/05/05 04:10:45;;;;;;;3.63;2.30;;;;;;;;;;5092958;28;20118;-74
2021/05/05 04:13:11;;;;;;;7.38;2.25;;;;;;;;;;5081513;28;20024;-74
2021/05/05 04:15:37;;;;;;;4.75;2.20;;;;;;;;;;5072614;28;20425;-74
2021/05/05 04:18:04;;;;;;;3.33;2.13;;;;;;;;;;5082175;28;20037;-75
2021/05/05 04:20:30;;;;;;;8.82;2.40;;;;;;;;;;5072941;28;20123;-75
2021/05/05 04:22:56;;;;;;;3.38;1.90;;;;;;;;;;5080035;28;20389;-74
2021/05/05 04:25:22;;;;;;;6.33;2.17;;;;;;;;;;5079212;28;20091;-75
2021/05/05 04:27:48;;;;;;;4.97;2.37;;;;;;;;;;5083915;28;20082;-75
2021/05/05 04:30:18;;;;;;;4.47;2.05;;;;;;;;;;5084351;28;20028;-74
2021/05/05 04:32:45;;;;;;;5.18;2.35;;;;;;;;;;5080946;28;20027;-75
2021/05/05 04:35:11;;;;;;;;;;;;;;;;;;5087895;28;20042;-75
2021/05/05 04:37:37;;;;;;;4.88;2.72;;;;;;;;;;5088313;28;19911;-74
2021/05/05 04:40:05;;;;;;;5.17;2.80;;;;;;;;;;5092039;28;20054;-74
2021/05/05 04:42:31;;;;;;;7.38;2.72;;;;;;;;;;5085504;28;20290;-73
2021/05/05 04:45:00;;;;;;;7.03;2.80;;;;;;;;;;5071877;28;20413;-74
2021/05/05 04:47:26;;;;;;;7.80;2.95;;;;;;;;;;5084081;28;20384;-75
2021/05/05 04:49:52;;;;;;;5.68;2.70;;;;;;;;;;5091832;28;20110;-74
2021/05/05 04:52:18;;;;;;;8.47;3.00;;;;;;;;;;5088358;28;20025;-74
2021/05/05 04:54:44;;;;;;;5.60;2.80;;;;;;;;;;5084087;28;20059;-75
2021/05/05 04:57:10;;;;;;;7.68;3.33;;;;;;;;;;5082160;28;20470;-74
2021/05/05 04:59:36;;;;;;;6.67;3.00;;;;;;;;;;5090499;28;20051;-74
2021/05/05 05:02:02;;;;;;;7.47;3.00;;;;;;;;;;5084987;28;20519;-74
2021/05/05 05:04:28;;;;;;;9.25;3.40;;;;;;;;;;5090694;28;20031;-75
2021/05/05 05:06:54;;;;;;;12.27;3.87;;;;;;;;;;5077834;28;20392;-75
2021/05/05 05:09:20;;;;;;;7.97;3.60;;;;;;;;;;5086215;28;20033;-75
2021/05/05 05:11:47;;;;;;;7.73;3.37;;;;;;;;;;5075861;28;20044;-75
2021/05/05 05:14:13;;;;;;;6.88;3.30;;;;;;;;;;5076929;28;20028;-75
2021/05/05 05:16:39;;;;;;;61.80;6.57;;;;;;;;;;5083822;28;20020;-76
2021/05/05 05:19:05;;;;;;;12.87;3.40;;;;;;;;;;5072553;28;20063;-76
2021/05/05 05:21:31;;;;;;;12.60;3.83;;;;;;;;;;5090360;28;20124;-75
2021/05/05 05:23:57;;;;;;;9.60;3.37;;;;;;;;;;5085278;28;20086;-74
2021/05/05 05:26:23;;;;;;;9.77;3.50;;;;;;;;;;5084404;28;20085;-75
2021/05/05 05:28:49;;;;;;;8.47;3.50;;;;;;;;;;5089510;28;20066;-74
2021/05/05 05:31:15;;;;;;;8.10;3.53;;;;;;;;;;5085799;28;20765;-74
2021/05/05 05:33:41;;;;;;;5.53;2.73;;;;;;;;;;5084801;28;20028;-75
2021/05/05 05:36:07;;;;;;;8.17;2.93;;;;;;;;;;5083402;28;20012;-75
2021/05/05 05:38:33;;;;;;;6.90;3.07;;;;;;;;;;5082396;28;20036;-74
2021/05/05 05:40:59;;;;;;;7.27;3.47;;;;;;;;;;5069153;28;20025;-74
2021/05/05 05:43:25;;;;;;;6.07;2.93;;;;;;;;;;5074267;28;20033;-75
2021/05/05 05:45:51;;;;;;;8.20;3.07;;;;;;;;;;5071788;28;20075;-75
2021/05/05 05:48:17;;;;;;;4.57;3.00;;;;;;;;;;5079471;28;20519;-74
2021/05/05 05:50:43;;;;;;;5.80;3.00;;;;;;;;;;5090415;28;20119;-73
2021/05/05 05:53:09;;;;;;;6.10;2.90;;;;;;;;;;5072611;28;20282;-73
2021/05/05 05:55:35;;;;;;;7.70;2.87;;;;;;;;;;5082421;28;20059;-74
2021/05/05 05:58:03;;;;;;;8.38;3.40;;;;;;;;;;5085109;28;20017;-73
2021/05/05 06:00:30;;;;;;;9.98;3.15;;;;;;;;;;5075216;28;20040;-74
2021/05/05 06:02:56;;;;;;;6.70;2.92;;;;;;;;;;5085506;28;20052;-74
2021/05/05 06:05:22;;;;;;;9.45;3.08;;;;;;;;;;5090463;28;20032;-74
2021/05/05 06:07:48;;;;;;;7.70;2.97;;;;;;;;;;5090247;28;20062;-73
2021/05/05 06:10:14;;;;;;;11.20;3.13;;;;;;;;;;5090330;28;20040;-74
2021/05/05 06:12:40;;;;;;;7.57;2.72;;;;;;;;;;5090417;28;20031;-74
2021/05/05 06:15:07;;;;;;;8.70;3.00;;;;;;;;;;5090685;28;20024;-74
2021/05/05 06:17:33;;;;;;;4.65;2.78;;;;;;;;;;5087118;28;20028;-74
2021/05/05 06:19:59;;;;;;;6.53;2.80;;;;;;;;;;5070593;28;20062;-75
2021/05/05 06:22:24;;;;;;;8.23;2.70;;;;;;;;;;5071846;28;20017;-74
2021/05/05 06:24:51;;;;;;;6.37;2.70;;;;;;;;;;5079947;28;20055;-75
2021/05/05 06:27:17;;;;;;;3.33;2.50;;;;;;;;;;5073103;28;20024;-74
2021/05/05 06:29:43;;;;;;;4.07;2.65;;;;;;;;;;5070137;28;20381;-74
2021/05/05 06:32:09;;;;;;;7.32;2.42;;;;;;;;;;5082123;28;20078;-75
2021/05/05 06:34:35;;;;;;;6.30;2.75;;;;;;;;;;5081699;28;20028;-74
2021/05/05 06:37:03;;;;;;;4.27;2.63;;;;;;;;;;5085634;28;20050;-74
2021/05/05 06:39:29;;;;;;;6.53;2.60;;;;;;;;;;5068503;28;20286;-75
2021/05/05 06:41:55;;;;;;;4.75;2.50;;;;;;;;;;5069220;28;20095;-75
2021/05/05 06:44:21;;;;;;;6.37;2.60;;;;;;;;;;5069811;28;20063;-72
2021/05/05 06:46:49;;;;;;;9.15;2.83;;;;;;;;;;5078458;28;20282;-74
2021/05/05 06:49:15;;;;;;;4.45;2.60;;;;;;;;;;5087130;28;20016;-74
2021/05/05 06:51:41;;;;;;;4.55;2.60;;;;;;;;;;5073048;28;20040;-74
2021/05/05 06:54:08;;;;;;;4.78;2.70;;;;;;;;;;5093412;28;20393;-74
2021/05/05 06:56:34;;;;;;;5.72;2.40;;;;;;;;;;5079484;28;20021;-75
2021/05/05 06:59:00;;;;;;;5.53;2.78;;;;;;;;;;5076283;28;20044;-74
2021/05/05 07:01:26;;;;;;;3.55;2.35;;;;;;;;;;5076843;28;20665;-75
2021/05/05 07:03:52;;;;;;;7.80;2.60;;;;;;;;;;5074115;28;20025;-74
2021/05/05 07:06:18;;;;;;;4.82;2.80;;;;;;;;;;5090766;28;20039;-74
2021/05/05 07:08:44;;;;;;;3.75;2.55;;;;;;;;;;5081418;28;20025;-73
2021/05/05 07:11:10;;;;;;;4.15;2.33;;;;;;;;;;5080677;28;20470;-74
2021/05/05 07:13:36;;;;;;;4.72;2.53;;;;;;;;;;5090686;28;20051;-74
2021/05/05 07:16:02;;;;;;;5.72;2.70;;;;;;;;;;5075634;28;20033;-74
2021/05/05 07:18:28;;;;;;;4.03;2.53;;;;;;;;;;5091473;28;20054;-73
2021/05/05 07:20:56;;;;;;;4.32;2.58;;;;;;;;;;5082703;28;20112;-73
2021/05/05 07:23:22;;;;;;;4.82;2.40;;;;;;;;;;5079828;28;20016;-73
2021/05/05 07:25:48;;;;;;;6.22;2.40;;;;;;;;;;5092046;28;20038;-76
2021/05/05 07:28:14;;;;;;;3.17;2.30;;;;;;;;;;5072958;28;20107;-75
2021/05/05 07:30:40;;;;;;;5.65;2.70;;;;;;;;;;5090006;28;20115;-75
2021/05/05 07:33:07;;;;;;;5.20;2.58;;;;;;;;;;5084100;28;20425;-75
2021/05/05 07:35:33;;;;;;;5.32;2.50;;;;;;;;;;5085901;28;20025;-75
2021/05/05 07:43:41;;;;;;;4.82;2.30;;;;;;;;;;5089088;28;20039;-74
2021/05/05 07:46:19;;;;;;;6.25;2.40;;;;;;;;;;5073944;28;20071;-75
2021/05/05 07:48:55;;;;;;;4.82;2.28;;;;;;;;;;5072871;28;20072;-75
2021/05/05 07:51:21;;;;;;;3.30;2.30;;;;;;;;;;5072957;28;20047;-74
2021/05/05 07:53:47;;;;;;;3.55;2.50;;;;;;;;;;5072861;28;20028;-75
2021/05/05 07:56:13;;;;;;;3.15;2.25;;;;;;;;;;5073078;28;20029;-75
2021/05/05 07:58:42;;;;;;;3.63;2.17;;;;;;;;;;5073830;28;20051;-73
2021/05/05 08:01:08;;;;;;;3.97;2.42;;;;;;;;;;5091928;28;20024;-76
2021/05/05 08:03:34;;;;;;;7.22;2.40;;;;;;;;;;5092908;28;20042;-75
2021/05/05 08:06:00;;;;;;;4.20;2.30;;;;;;;;;;5088586;28;20026;-74
2021/05/05 08:08:26;;;;;;;3.97;2.40;;;;;;;;;;5072547;28;20077;-74
2021/05/05 08:10:55;;;;;;;3.97;2.40;;;;;;;;;;5072338;28;20028;-75
2021/05/05 08:13:21;;;;;;;4.65;2.47;;;;;;;;;;5072348;28;20299;-74
2021/05/05 08:15:47;;;;;;;3.53;2.40;;;;;;;;;;5072720;28;20469;-74
2021/05/05 08:18:13;;;;;;;3.72;2.28;;;;;;;;;;5073324;28;20016;-74
2021/05/05 08:20:42;;;;;;;2.92;2.17;;;;;;;;;;5074218;28;20020;-74
2021/05/05 08:23:09;;;;;;;3.58;2.10;;;;;;;;;;5092356;28;20028;-74
2021/05/05 08:25:34;;;;;;;;;;;;;;;;;;5075066;28;20470;-74
2021/05/05 08:28:01;;;;;;;3.03;2.22;;;;;;;;;;5085282;28;19926;-73
2021/05/05 08:30:27;;;;;;;3.20;2.10;;;;;;;;;;5083899;28;20386;-74
2021/05/05 08:32:53;;;;;;;4.50;2.30;;;;;;;;;;5072060;28;20068;-74
2021/05/05 08:35:19;;;;;;;3.08;2.22;;;;;;;;;;5072202;28;20066;-73
2021/05/05 08:37:48;;;;;;;3.17;2.30;;;;;;;;;;5071090;28;20025;-75
2021/05/05 08:40:14;;;;;;;2.90;2.10;;;;;;;;;;5072859;28;20033;-74
2021/05/05 08:42:40;;;;;;;;;;;;;;;;;;5072616;28;20482;-74
2021/05/05 08:45:12;;;;;;;4.30;2.33;;;;;;;;;;5071787;28;19916;-74
2021/05/05 08:47:38;;;;;;;2.95;2.15;;;;;;;;;;5072156;28;20050;-73
2021/05/05 08:50:06;;;;;;;4.18;2.40;;;;;;;;;;5072079;28;20406;-74
2021/05/05 08:52:32;;;;;;;2.72;1.92;;;;;;;;;;5071320;28;20032;-74
2021/05/05 08:54:58;;;;;;;3.20;2.20;;;;;;;;;;5071353;28;20039;-74
2021/05/05 08:57:24;;;;;;;3.73;2.17;;;;;;;;;;5072017;28;20025;-73
2021/05/05 08:59:50;;;;;;;2.50;2.07;;;;;;;;;;5071610;28;20788;-73
2021/05/05 09:02:16;;;;;;;3.10;2.20;;;;;;;;;;5071345;28;20266;-74
2021/05/05 09:04:54;;;;;;;3.20;2.20;;;;;;;;;;5071163;28;20054;-75
2021/05/05 09:07:33;;;;;;;2.42;2.10;;;;;;;;;;5071333;28;20334;-76
2021/05/05 09:10:01;;;;;;;2.40;2.13;;;;;;;;;;5071157;28;20024;-75
2021/05/05 09:12:27;;;;;;;2.63;2.17;;;;;;;;;;5082745;28;20066;-74
2021/05/05 09:14:56;;;;;;;2.80;2.50;;;;;;;;;;5080357;28;20483;-74
2021/05/05 09:17:23;;;;;;;2.28;2.05;;;;;;;;;;5075132;28;20025;-74
2021/05/05 09:19:50;;;;;;;3.88;2.15;;;;;;;;;;5086309;28;20032;-75
2021/05/05 09:22:34;;;;;;;2.28;2.08;;;;;;;;;;5098161;28;20032;-75
2021/05/05 09:25:00;;;;;;;4.03;2.20;;;;;;;;;;5082720;28;20464;-78
2021/05/05 09:27:26;;;;;;;2.40;2.20;;;;;;;;;;5088828;28;20492;-78
2021/05/05 09:29:53;;;;;;;3.55;2.38;;;;;;;;;;5090699;28;20277;-77
2021/05/05 09:32:20;;;;;;;2.25;1.85;;;;;;;;;;5091385;28;20059;-77
2021/05/05 09:34:57;;;;;;;2.70;1.98;;;;;;;;;;5107941;28;20493;-75
2021/05/05 09:37:23;;;;;;;;;;;;;;;;;;5083589;28;20051;-75
2021/05/05 09:39:56;;;;;;;2.28;2.08;;;;;;;;;;5077290;28;19912;-79
2021/05/05 09:42:22;;;;;;;4.15;2.00;;;;;;;;;;5079634;28;20474;-77
2021/05/05 09:44:55;;;;;;;2.90;1.83;;;;;;;;;;5083314;28;20115;-76
2021/05/05 09:47:21;;;;;;;2.88;2.17;;;;;;;;;;5085342;28;20270;-77
2021/05/05 09:49:48;;;;;;;4.47;2.20;;;;;;;;;;5074810;28;20083;-77
2021/05/05 09:52:22;;;;;;;4.20;2.10;;;;;;;;;;5070908;28;20050;-75
2021/05/05 09:54:59;;;;;;;3.83;2.28;;;;;;;;;;5090274;28;20061;-76
2021/05/05 09:57:31;;;;;;;2.45;2.03;;;;;;;;;;5073307;28;20086;-77
2021/05/05 09:59:57;;;;;;;4.10;2.40;;;;;;;;;;5080153;28;20075;-76
2021/05/05 10:02:23;;;;;;;3.05;2.35;;;;;;;;;;5090870;28;20382;-77
2021/05/05 10:05:09;;;;;;;3.08;2.17;;;;;;;;;;5087282;28;20386;-76
2021/05/05 10:07:50;;;;;;;3.05;2.22;;;;;;;;;;5070085;28;20387;-75
2021/05/05 10:10:16;;;;;;;2.67;2.13;;;;;;;;;;5071379;28;20050;-74
2021/05/05 10:12:43;;;;;;;3.35;2.25;;;;;;;;;;5076750;28;20345;-75
2021/05/05 10:15:09;;;;;;;5.50;2.30;;;;;;;;;;5078491;28;20069;-75
2021/05/05 10:17:35;;;;;;;3.28;2.40;;;;;;;;;;5090383;28;20020;-76
2021/05/05 10:20:03;;;;;;;2.85;2.20;;;;;;;;;;5089593;28;20044;-76
2021/05/05 10:22:29;;;;;;;3.33;2.30;;;;;;;;;;5084942;28;20028;-76
2021/05/05 10:24:55;;;;;;;;;;;;;;;;;;5090386;28;20095;-72
2021/05/05 10:27:21;;;;;;;8.00;2.78;;;;;;;;;;5072189;28;20003;-76
2021/05/05 10:29:49;;;;;;;21.20;2.90;;;;;;;;;;5070562;28;20115;-74
2021/05/05 10:32:17;;;;;;;10.40;2.60;;;;;;;;;;5070068;28;20055;-74
2021/05/05 10:34:44;;;;;;;9.20;2.60;;;;;;;;;;5081001;28;20028;-74
2021/05/05 10:37:11;;;;;;;9.93;2.60;;;;;;;;;;5091168;28;20229;-73
2021/05/05 10:39:38;;;;;;;8.90;2.53;;;;;;;;;;5091343;28;20539;-73
2021/05/05 10:42:19;;;;;;;9.82;2.75;;;;;;;;;;5089445;28;20038;-74
2021/05/05 10:44:56;;;;;;;6.65;2.90;;;;;;;;;;5085526;28;20044;-73
2021/05/05 10:47:50;;;;;;;5.60;2.70;;;;;;;;;;5088424;28;20040;-84
2021/05/05 10:50:16;;;;;;;7.22;2.38;;;;;;;;;;5076702;28;20871;-81
2021/05/05 10:52:42;;;;;;;4.47;2.63;;;;;;;;;;5069903;28;20052;-83
2021/05/05 10:55:15;;;;;;;6.90;3.10;;;;;;;;;;5069423;28;20059;-84
2021/05/05 10:58:01;;;;;;;6.75;3.20;;;;;;;;;;5068394;28;20047;-84
2021/05/05 11:00:42;;;;;;;9.27;3.10;;;;;;;;;;5089273;28;20122;-82
2021/05/05 11:03:08;;;;;;;7.65;3.15;;;;;;;;;;5080028;28;20021;-81
2021/05/05 11:05:35;;;;;;;;;;;;;;;;;;5087552;28;20051;-80
2021/05/05 11:08:03;;;;;;;9.55;3.20;;;;;;;;;;5084485;28;19962;-80
2021/05/05 11:10:32;;;;;;;8.57;3.47;;;;;;;;;;5090127;28;20028;-80
2021/05/05 11:12:59;;;;;;;10.27;3.70;;;;;;;;;;5075196;28;20479;-79
2021/05/05 11:15:43;;;;;;;6.55;3.05;;;;;;;;;;5089282;28;20110;-80
2021/05/05 11:18:31;;;;;;;9.57;3.13;;;;;;;;;;5108493;27;20040;-82
2021/05/05 11:21:02;;;;;;;16.77;3.03;;;;;;;;;;5109974;28;20043;-83
2021/05/05 11:23:34;;;;;;;10.55;3.30;;;;;;;;;;5104569;28;20057;-76
2021/05/05 11:26:19;;;;;;;10.68;3.60;;;;;;;;;;5098950;28;20039;-74
2021/05/05 11:28:59;;;;;;;8.00;3.13;;;;;;;;;;5095762;28;20058;-76
2021/05/05 11:31:43;;;;;;;10.65;2.97;;;;;;;;;;5099105;28;20446;-74
2021/05/05 11:34:09;;;;;;;7.60;2.92;;;;;;;;;;5096935;28;20326;-75
2021/05/05 11:36:35;;;;;;;8.82;3.03;;;;;;;;;;5101601;28;20066;-76
2021/05/05 11:39:03;;;;;;;8.35;3.20;;;;;;;;;;5101561;28;20052;-75
2021/05/05 11:41:31;;;;;;;7.10;3.00;;;;;;;;;;5101537;28;20356;-74
2021/05/05 11:43:57;;;;;;;8.80;3.10;;;;;;;;;;5099769;28;20032;-77
2021/05/05 11:46:25;;;;;;;6.40;2.93;;;;;;;;;;5103072;28;20082;-76
2021/05/05 11:48:52;;;;;;;7.30;3.20;;;;;;;;;;5100639;28;20050;-76
2021/05/05 11:51:26;;;;;;;6.82;2.85;;;;;;;;;;5100915;28;20088;-75
2021/05/05 11:53:52;;;;;;;7.63;2.78;;;;;;;;;;5102583;28;20031;-75
2021/05/05 11:56:20;;;;;;;7.03;2.87;;;;;;;;;;5100761;28;20036;-75
2021/05/05 11:58:57;;;;;;;6.22;2.90;;;;;;;;;;5100614;28;20042;-75
2021/05/05 12:01:30;;;;;;;8.57;3.08;;;;;;;;;;5098299;28;20024;-76
2021/05/05 12:04:15;;;;;;;5.78;2.80;;;;;;;;;;5096769;28;20452;-77
2021/05/05 12:07:07;;;;;;;8.65;3.03;;;;;;;;;;5098677;28;20032;-79
2021/05/05 12:09:37;;;;;;;5.70;2.80;;;;;;;;;;5100279;28;20047;-75
2021/05/05 12:12:10;;;;;;;6.45;2.70;;;;;;;;;;5100999;28;20031;-73
2021/05/05 12:14:36;;;;;;;6.40;3.03;;;;;;;;;;5100088;28;20074;-76
2021/05/05 12:17:14;;;;;;;5.43;2.95;;;;;;;;;;5102218;28;20114;-75
2021/05/05 12:19:40;;;;;;;5.78;2.63;;;;;;;;;;5100852;28;20074;-76
2021/05/05 12:22:12;;;;;;;4.93;2.70;;;;;;;;;;5100673;28;20020;-76
2021/05/05 12:24:38;;;;;;;6.13;2.97;;;;;;;;;;5101632;28;20053;-77
2021/05/05 12:27:08;;;;;;;6.00;2.60;;;;;;;;;;5101116;28;20371;-73
2021/05/05 12:29:34;;;;;;;6.05;2.90;;;;;;;;;;5100876;28;20623;-77
2021/05/05 12:32:01;;;;;;;4.90;2.40;;;;;;;;;;5100464;28;20062;-76
2021/05/05 12:34:27;;;;;;;8.00;2.72;;;;;;;;;;5100731;28;20036;-77
2021/05/05 12:36:55;;;;;;;4.60;2.60;;;;;;;;;;5100601;28;20110;-76
2021/05/05 12:39:22;;;;;;;10.93;3.00;;;;;;;;;;5101383;28;20097;-76
2021/05/05 12:41:51;;;;;;;6.18;2.97;;;;;;;;;;5100434;28;20032;-77
2021/05/05 12:44:17;;;;;;;5.70;2.50;;;;;;;;;;5098067;28;20044;-75
2021/05/05 12:46:58;;;;;;;10.50;3.03;;;;;;;;;;5098893;28;20382;-77
2021/05/05 12:49:26;;;;;;;5.43;3.03;;;;;;;;;;5099882;28;20058;-75
2021/05/05 12:51:53;;;;;;;5.30;2.80;;;;;;;;;;5099770;27;20031;-74
2021/05/05 12:54:20;;;;;;;5.53;2.92;;;;;;;;;;5099927;28;20027;-75
2021/05/05 12:56:48;;;;;;;6.45;3.10;;;;;;;;;;5098331;28;20032;-75
2021/05/05 12:59:34;;;;;;;6.57;2.80;;;;;;;;;;5097165;28;20122;-75
2021/05/05 13:02:00;;;;;;;;;;;;;;;;;;5101329;28;20044;-74
2021/05/05 13:04:34;;;;;;;6.22;2.67;;;;;;;;;;5100201;28;20285;-72
2021/05/05 13:07:00;;;;;;;7.38;2.80;;;;;;;;;;5098096;28;20049;-75
2021/05/05 13:09:26;;;;;;;8.00;2.80;;;;;;;;;;5099201;28;20070;-74
2021/05/05 13:12:08;;;;;;;3.70;2.47;;;;;;;;;;5100638;28;20063;-75
2021/05/05 13:14:47;;;;;;;5.25;2.80;;;;;;;;;;5100989;28;20106;-73
2021/05/05 13:26:26;;;;;;;13.10;3.33;;;;;;;;;;5064445;28;19928;-77
2021/05/05 13:31:16;;;;;;;;;;;;;;;;;;5090273;28;20050;-79
2021/05/05 13:33:58;;;;;;;33.65;7.47;;;;;;;;;;5090709;28;19904;-79
2021/05/05 13:36:42;;;;;;;54.38;8.75;;;;;;;;;;5090613;28;20097;-80
2021/05/05 13:39:08;;;;;;;39.38;9.60;;;;;;;;;;5091134;28;20348;-79
2021/05/05 13:41:34;;;;;;;54.53;11.55;;;;;;;;;;5091148;28;20027;-79
2021/05/05 13:44:04;;;;;;;48.45;11.57;;;;;;;;;;5090321;28;20092;-78
2021/05/05 13:47:03;;;;;;;54.47;12.48;;;;;;;;;;5089272;28;20097;-81
2021/05/05 13:49:39;;;;;;;57.00;13.07;;;;;;;;;;5090108;28;20118;-80
2021/05/05 13:52:05;;;;;;;59.55;14.02;;;;;;;;;;5090821;28;20107;-80
2021/05/05 13:54:32;;;;;;;63.28;13.73;;;;;;;;;;5090822;28;20044;-79
2021/05/05 13:57:02;;;;;;;50.88;13.90;;;;;;;;;;5090170;28;20024;-78
2021/05/05 13:59:28;;;;;;;60.70;13.93;;;;;;;;;;5090581;28;20032;-79
2021/05/05 14:01:54;;;;;;;51.47;13.80;;;;;;;;;;5090641;28;20467;-78
2021/05/05 14:04:20;;;;;;;62.25;14.27;;;;;;;;;;5090355;28;20055;-78
2021/05/05 14:06:48;;;;;;;48.75;14.23;;;;;;;;;;5090448;28;20054;-78
2021/05/05 14:09:14;;;;;;;47.85;13.55;;;;;;;;;;5090295;28;20028;-76
2021/05/05 14:11:40;;;;;;;51.90;14.60;;;;;;;;;;5090619;28;20417;-79
2021/05/05 14:14:06;;;;;;;58.20;14.60;;;;;;;;;;5088998;28;20044;-79
2021/05/05 14:16:33;;;;;;;53.40;13.93;;;;;;;;;;5090333;28;20062;-79
2021/05/05 14:18:59;;;;;;;46.65;13.45;;;;;;;;;;5090289;28;20071;-78
2021/05/05 14:21:25;;;;;;;44.40;13.27;;;;;;;;;;5090632;28;20031;-79
2021/05/05 14:23:52;;;;;;;41.53;13.15;;;;;;;;;;5089840;28;20131;-78
2021/05/05 14:26:19;;;;;;;47.70;13.45;;;;;;;;;;5090414;28;20016;-79
2021/05/05 14:28:44;;;;;;;50.58;13.25;;;;;;;;;;5090182;28;20103;-80
2021/05/05 14:31:11;;;;;;;37.92;13.00;;;;;;;;;;5090552;28;20106;-79
2021/05/05 14:33:38;;;;;;;43.08;13.10;;;;;;;;;;5089544;28;20515;-79
2021/05/05 14:36:05;;;;;;;50.58;13.68;;;;;;;;;;5089867;28;20040;-80
2021/05/05 14:38:34;;;;;;;;;;;;;;;;;;5090538;28;20024;-79
2021/05/05 14:41:04;;;;;;;47.00;13.10;;;;;;;;;;5089861;28;20349;-80
2021/05/05 14:43:36;;;;;;;40.05;12.18;;;;;;;;;;5093839;28;20470;-80
2021/05/05 14:48:57;;;;;;;36.08;11.55;;;;;;;;;;5069910;28;20021;-79
2021/05/05 14:51:23;;;;;;;36.37;11.77;;;;;;;;;;5089836;28;20024;-80
2021/05/05 14:53:49;;;;;;;39.95;12.02;;;;;;;;;;5090386;28;20258;-80
2021/05/05 14:56:15;;;;;;;38.65;12.40;;;;;;;;;;5089599;28;20036;-80
2021/05/05 14:58:58;;;;;;;37.00;11.93;;;;;;;;;;5089721;28;20020;-80
2021/05/05 15:01:24;;;;;;;33.65;11.50;;;;;;;;;;5090347;28;20073;-79
2021/05/05 15:03:50;;;;;;;38.65;12.25;;;;;;;;;;5090125;28;20366;-79
2021/05/05 15:06:22;;;;;;;41.30;12.35;;;;;;;;;;5088365;28;20056;-80
2021/05/05 15:09:17;;;;;;;39.53;12.43;;;;;;;;;;5089394;28;20030;-79